Viking Queen — WDB9919 — position and weather

sailwx.info

Track history (hours):
 
Tides and Currents Weather Stations Pressure Air Temp Water Temp Dewpoint Dewpoint Depression Visibility Wind Speed Wind Dir Waves Ship Positions

Viking Queen

Owner: American River Transportation Company, St Louis, MO. More information available from US FCC via Universal Licensing System and Coast Guard Vessel Documentation Center.

Last reported at 2017-Apr-06 15:34 UTC. Time now 2017-Apr-27 14:40 UTC.
Position N 32°45' W 091°09'.
Warning: this ship's position is 20 days out of date.

Length 58 m; draft 3 m.

Type: Towing. MMSI: 366985050.

Date/timePositionNaut miles runAvg speedWind from/ knotsBaromVisibWave heightAir tempDewpointWater temp
2017-Apr-06 15:34N 32°45' W 091°09'4 3.4
2017-Apr-06 14:25N 32°44' W 091°05'5 3.1
2017-Apr-06 12:53N 32°40' W 091°08'2 4.3
2017-Apr-06 12:30N 32°39' W 091°09'2 4.0
2017-Apr-06 12:00N 32°37' W 091°09'2 3.9
2017-Apr-06 11:30N 32°35' W 091°08'2 4.2
2017-Apr-06 11:00N 32°34' W 091°06'2 4.0
2017-Apr-06 10:30N 32°32' W 091°06'2 4.4
2017-Apr-06 10:00N 32°30' W 091°07'2 4.5
2017-Apr-06 09:30N 32°28' W 091°06'2 4.5
2017-Apr-06 09:00N 32°26' W 091°03'2 4.3
2017-Apr-06 08:30N 32°26' W 091°01'2 4.0
2017-Apr-06 08:00N 32°24' W 090°60'2 4.2
2017-Apr-06 07:30N 32°22' W 091°00'2 3.7
2017-Apr-06 07:00N 32°21' W 090°59'2 4.9
2017-Apr-06 06:30N 32°21' W 090°56'2 3.7
2017-Apr-06 06:00N 32°20' W 090°54'2 3.5
2017-Apr-06 05:30N 32°18' W 090°55'0 0.4
2017-Apr-06 05:00N 32°18' W 090°55'0 0.0
2017-Apr-06 04:30N 32°18' W 090°55'0 0.1
2017-Apr-06 04:00N 32°18' W 090°55'0 0.0
2017-Apr-06 03:30N 32°18' W 090°55'0 0.0
2017-Apr-06 03:00N 32°18' W 090°55'0 0.0
2017-Apr-06 02:30N 32°18' W 090°55'0 0.1
2017-Apr-06 02:00N 32°18' W 090°55'2 3.9
2017-Apr-06 01:30N 32°17' W 090°57'2 4.3
2017-Apr-06 01:00N 32°15' W 090°59'2 4.1
2017-Apr-06 00:30N 32°13' W 090°59'2 4.2
2017-Apr-06 00:00N 32°11' W 090°60'2 4.3
2017-Apr-05 23:30N 32°09' W 091°00'2 4.2
2017-Apr-05 23:00N 32°07' W 091°01'2 4.1
2017-Apr-05 22:30N 32°08' W 091°04'2 4.5
2017-Apr-05 22:00N 32°07' W 091°06'86 2.5
2017-Apr-04 11:38N 30°42' W 091°21'0 0.0
2017-Apr-04 11:29N 30°42' W 091°21'0 0.2
2017-Apr-04 11:00N 30°42' W 091°21'2 1.8
2017-Apr-04 09:57N 30°40' W 091°21'2 4.5
2017-Apr-04 09:28N 30°39' W 091°19'2 3.5
2017-Apr-04 08:54N 30°37' W 091°18'1 3.3
2017-Apr-04 08:30N 30°36' W 091°18'2 3.0
2017-Apr-04 07:56N 30°34' W 091°19'2 4.9
2017-Apr-04 07:31N 30°34' W 091°16'2 4.0
2017-Apr-04 06:59N 30°33' W 091°14'2 3.7
2017-Apr-04 06:30N 30°32' W 091°16'4 2.0
2017-Apr-04 04:33N 30°30' W 091°12'0 4.4
2017-Apr-04 04:31N 30°29' W 091°12'2 4.5
2017-Apr-04 03:59N 30°27' W 091°12'2 4.7
2017-Apr-04 03:31N 30°25' W 091°12'1 0.0
2017-Apr-02 05:04N 30°24' W 091°12'0 0.0
2017-Apr-02 04:50N 30°24' W 091°12'0 0.0
2017-Apr-02 04:30N 30°24' W 091°12'95 3.3
2017-Mar-31 23:32N 31°59' W 091°06'0 7.4
2017-Mar-31 23:30N 31°59' W 091°06'4 8.0
2017-Mar-31 23:00N 32°03' W 091°03'4 7.7
2017-Mar-31 22:30N 32°06' W 091°06'2 3.4
2017-Mar-31 22:00N 32°08' W 091°06'3 6.9
2017-Mar-31 21:30N 32°07' W 091°02'3 6.8
2017-Mar-31 21:00N 32°10' W 091°00'4 8.0
2017-Mar-31 20:30N 32°14' W 090°59'4 7.6
2017-Mar-31 20:00N 32°17' W 090°56'3 6.8
2017-Mar-31 19:30N 32°20' W 090°54'2 3.7
2017-Mar-31 19:00N 32°21' W 090°56'4 7.6
2017-Mar-31 18:30N 32°22' W 091°00'4 7.1
2017-Mar-31 18:00N 32°25' W 091°00'4 8.0
2017-Mar-31 17:30N 32°27' W 091°05'4 7.3
2017-Mar-31 17:00N 32°30' W 091°07'4 7.6
2017-Mar-31 16:28N 32°34' W 091°06'6 6.9
2017-Mar-31 15:37N 32°40' W 091°08'  
Track history (hours):
 
Tides and Currents Weather Stations Pressure Air Temp Water Temp Dewpoint Dewpoint Depression Visibility Wind Speed Wind Dir Waves Ship Positions

Viking Queen

Owner: American River Transportation Company, St Louis, MO. More information available from US FCC via Universal Licensing System and Coast Guard Vessel Documentation Center.

Last reported at 2017-Apr-06 15:34 UTC. Time now 2017-Apr-27 14:40 UTC.
Position N 32°45' W 091°09'.
Warning: this ship's position is 20 days out of date.

Length 58 m; draft 3 m.

Type: Towing. MMSI: 366985050.

Date/timePositionNaut miles runAvg speedWind from/ knotsBaromVisibWave heightAir tempDewpointWater temp
2017-Apr-06 15:34N 32°45' W 091°09'4 3.4
2017-Apr-06 14:25N 32°44' W 091°05'5 3.1
2017-Apr-06 12:53N 32°40' W 091°08'2 4.3
2017-Apr-06 12:30N 32°39' W 091°09'2 4.0
2017-Apr-06 12:00N 32°37' W 091°09'2 3.9
2017-Apr-06 11:30N 32°35' W 091°08'2 4.2
2017-Apr-06 11:00N 32°34' W 091°06'2 4.0
2017-Apr-06 10:30N 32°32' W 091°06'2 4.4
2017-Apr-06 10:00N 32°30' W 091°07'2 4.5
2017-Apr-06 09:30N 32°28' W 091°06'2 4.5
2017-Apr-06 09:00N 32°26' W 091°03'2 4.3
2017-Apr-06 08:30N 32°26' W 091°01'2 4.0
2017-Apr-06 08:00N 32°24' W 090°60'2 4.2
2017-Apr-06 07:30N 32°22' W 091°00'2 3.7
2017-Apr-06 07:00N 32°21' W 090°59'2 4.9
2017-Apr-06 06:30N 32°21' W 090°56'2 3.7
2017-Apr-06 06:00N 32°20' W 090°54'2 3.5
2017-Apr-06 05:30N 32°18' W 090°55'0 0.4
2017-Apr-06 05:00N 32°18' W 090°55'0 0.0
2017-Apr-06 04:30N 32°18' W 090°55'0 0.1
2017-Apr-06 04:00N 32°18' W 090°55'0 0.0
2017-Apr-06 03:30N 32°18' W 090°55'0 0.0
2017-Apr-06 03:00N 32°18' W 090°55'0 0.0
2017-Apr-06 02:30N 32°18' W 090°55'0 0.1
2017-Apr-06 02:00N 32°18' W 090°55'2 3.9
2017-Apr-06 01:30N 32°17' W 090°57'2 4.3
2017-Apr-06 01:00N 32°15' W 090°59'2 4.1
2017-Apr-06 00:30N 32°13' W 090°59'2 4.2
2017-Apr-06 00:00N 32°11' W 090°60'2 4.3
2017-Apr-05 23:30N 32°09' W 091°00'2 4.2
2017-Apr-05 23:00N 32°07' W 091°01'2 4.1
2017-Apr-05 22:30N 32°08' W 091°04'2 4.5
2017-Apr-05 22:00N 32°07' W 091°06'86 2.5
2017-Apr-04 11:38N 30°42' W 091°21'0 0.0
2017-Apr-04 11:29N 30°42' W 091°21'0 0.2
2017-Apr-04 11:00N 30°42' W 091°21'2 1.8
2017-Apr-04 09:57N 30°40' W 091°21'2 4.5
2017-Apr-04 09:28N 30°39' W 091°19'2 3.5
2017-Apr-04 08:54N 30°37' W 091°18'1 3.3
2017-Apr-04 08:30N 30°36' W 091°18'2 3.0
2017-Apr-04 07:56N 30°34' W 091°19'2 4.9
2017-Apr-04 07:31N 30°34' W 091°16'2 4.0
2017-Apr-04 06:59N 30°33' W 091°14'2 3.7
2017-Apr-04 06:30N 30°32' W 091°16'4 2.0
2017-Apr-04 04:33N 30°30' W 091°12'0 4.4
2017-Apr-04 04:31N 30°29' W 091°12'2 4.5
2017-Apr-04 03:59N 30°27' W 091°12'2 4.7
2017-Apr-04 03:31N 30°25' W 091°12'1 0.0
2017-Apr-02 05:04N 30°24' W 091°12'0 0.0
2017-Apr-02 04:50N 30°24' W 091°12'0 0.0
2017-Apr-02 04:30N 30°24' W 091°12'95 3.3
2017-Mar-31 23:32N 31°59' W 091°06'0 7.4
2017-Mar-31 23:30N 31°59' W 091°06'4 8.0
2017-Mar-31 23:00N 32°03' W 091°03'4 7.7
2017-Mar-31 22:30N 32°06' W 091°06'2 3.4
2017-Mar-31 22:00N 32°08' W 091°06'3 6.9
2017-Mar-31 21:30N 32°07' W 091°02'3 6.8
2017-Mar-31 21:00N 32°10' W 091°00'4 8.0
2017-Mar-31 20:30N 32°14' W 090°59'4 7.6
2017-Mar-31 20:00N 32°17' W 090°56'3 6.8
2017-Mar-31 19:30N 32°20' W 090°54'2 3.7
2017-Mar-31 19:00N 32°21' W 090°56'4 7.6
2017-Mar-31 18:30N 32°22' W 091°00'4 7.1
2017-Mar-31 18:00N 32°25' W 091°00'4 8.0
2017-Mar-31 17:30N 32°27' W 091°05'4 7.3
2017-Mar-31 17:00N 32°30' W 091°07'4 7.6
2017-Mar-31 16:28N 32°34' W 091°06'6 6.9
2017-Mar-31 15:37N 32°40' W 091°08'  

Dump ship's entire track history